createdAt,value
2022-09-28T00:01:58.000Z,16.61
2022-09-28T00:04:26.139Z,16.61
2022-09-28T00:06:56.033Z,16.58
2022-09-28T00:09:26.453Z,16.72
2022-09-28T00:11:56.305Z,16.64
2022-09-28T00:14:26.602Z,16.70
2022-09-28T00:16:55.035Z,16.70
2022-09-28T00:19:23.391Z,16.67
2022-09-28T00:21:52.543Z,16.66
2022-09-28T00:24:25.341Z,16.76
2022-09-28T00:27:02.336Z,16.76
2022-09-28T00:29:37.370Z,16.74
2022-09-28T00:32:13.419Z,16.63
2022-09-28T00:34:49.607Z,16.66
2022-09-28T00:37:20.243Z,16.75
2022-09-28T00:39:49.494Z,16.72
2022-09-28T00:42:22.222Z,16.64
2022-09-28T00:45:00.234Z,16.65
2022-09-28T00:47:54.488Z,16.69
2022-09-28T00:50:36.006Z,16.71
2022-09-28T00:53:24.552Z,16.69
2022-09-28T00:56:03.759Z,16.59
2022-09-28T00:58:40.330Z,16.66
2022-09-28T01:01:15.347Z,16.63
2022-09-28T01:03:49.253Z,16.59
2022-09-28T01:06:24.146Z,16.67
2022-09-28T01:08:56.608Z,16.64
2022-09-28T01:11:26.304Z,16.58
2022-09-28T01:14:00.502Z,16.67
2022-09-28T01:16:51.011Z,16.64
2022-09-28T01:19:57.260Z,16.67
2022-09-28T01:22:48.410Z,16.57
2022-09-28T01:26:06.920Z,16.58
2022-09-28T01:28:37.360Z,16.55
2022-09-28T01:31:16.282Z,16.59
2022-09-28T01:34:24.385Z,16.65
2022-09-28T01:36:58.439Z,16.60
2022-09-28T01:39:41.622Z,16.61
2022-09-28T01:42:23.919Z,16.55
2022-09-28T01:44:58.787Z,16.63
2022-09-28T01:47:33.998Z,16.54
2022-09-28T01:50:21.620Z,16.65
2022-09-28T01:53:13.104Z,16.55
2022-09-28T01:56:10.444Z,16.61
2022-09-28T01:59:00.829Z,16.59
2022-09-28T02:01:44.427Z,16.52
2022-09-28T02:04:23.913Z,16.57
2022-09-28T02:07:24.547Z,16.55
2022-09-28T02:10:00.976Z,16.51
2022-09-28T02:13:00.607Z,16.44
2022-09-28T02:15:52.686Z,16.53
2022-09-28T02:18:21.331Z,16.30
2022-09-28T02:21:09.353Z,16.42
2022-09-28T02:23:42.690Z,16.42
2022-09-28T02:26:16.396Z,16.34
2022-09-28T02:28:44.663Z,16.45
2022-09-28T02:31:15.125Z,16.44
2022-09-28T02:33:46.541Z,16.43
2022-09-28T02:36:17.883Z,16.42
2022-09-28T02:38:48.710Z,16.39
2022-09-28T02:41:59.523Z,16.45
2022-09-28T02:45:05.344Z,16.40
2022-09-28T02:48:31.448Z,16.38
2022-09-28T02:51:47.259Z,16.33
2022-09-28T02:54:54.174Z,16.37
2022-09-28T02:57:56.261Z,16.35
2022-09-28T03:00:25.338Z,16.15
2022-09-28T03:03:28.310Z,16.27
2022-09-28T03:06:15.241Z,16.23
2022-09-28T03:09:06.711Z,16.37
2022-09-28T03:12:00.356Z,16.30
2022-09-28T03:14:28.861Z,16.35
2022-09-28T03:16:58.716Z,16.32
2022-09-28T03:19:34.485Z,16.40
2022-09-28T03:22:03.254Z,16.38
2022-09-28T03:24:32.631Z,16.41
2022-09-28T03:27:00.551Z,16.33
2022-09-28T03:29:32.079Z,16.29
2022-09-28T03:32:04.466Z,16.33
2022-09-28T03:34:34.307Z,16.38
2022-09-28T03:37:03.692Z,16.32
2022-09-28T03:39:31.973Z,16.36
2022-09-28T03:42:03.435Z,16.16
2022-09-28T03:44:35.307Z,16.27
2022-09-28T03:47:03.906Z,16.23
2022-09-28T03:49:33.851Z,16.36
2022-09-28T03:52:03.329Z,16.31
2022-09-28T03:54:33.340Z,16.36
2022-09-28T03:57:02.229Z,16.29
2022-09-28T03:59:30.905Z,16.30
2022-09-28T04:01:59.731Z,16.35
2022-09-28T04:04:28.279Z,16.36
2022-09-28T04:06:56.700Z,16.40
2022-09-28T04:09:26.336Z,16.39
2022-09-28T04:12:03.960Z,16.39
2022-09-28T04:14:35.441Z,16.37
2022-09-28T04:17:07.677Z,16.34
2022-09-28T04:19:38.513Z,16.38
2022-09-28T04:22:19.973Z,16.33
2022-09-28T04:24:49.986Z,16.38
2022-09-28T04:27:37.916Z,16.35
2022-09-28T04:30:11.593Z,16.28
2022-09-28T04:32:43.098Z,16.29
2022-09-28T04:35:12.911Z,16.37
2022-09-28T04:37:43.643Z,16.37
2022-09-28T04:40:13.542Z,16.37
2022-09-28T04:42:53.075Z,16.29
2022-09-28T04:45:27.116Z,16.28
2022-09-28T04:48:00.298Z,16.22
2022-09-28T04:50:58.425Z,16.29
2022-09-28T04:53:30.027Z,16.31
2022-09-28T04:56:06.387Z,16.19
2022-09-28T04:58:38.187Z,16.20
2022-09-28T05:01:11.501Z,16.21
2022-09-28T05:03:58.282Z,16.23
2022-09-28T05:07:00.650Z,16.20
2022-09-28T05:09:33.936Z,16.20
2022-09-28T05:12:04.714Z,16.20
2022-09-28T05:14:33.219Z,16.12
2022-09-28T05:17:02.619Z,16.14
2022-09-28T05:19:39.486Z,16.14
2022-09-28T05:22:13.976Z,16.05
2022-09-28T05:24:48.146Z,16.05
2022-09-28T05:27:18.314Z,16.04
2022-09-28T05:30:00.857Z,15.98
2022-09-28T05:32:33.144Z,15.97
2022-09-28T05:35:28.289Z,15.99
2022-09-28T05:38:03.522Z,15.95
2022-09-28T05:40:34.929Z,15.95
2022-09-28T05:43:04.118Z,15.89
2022-09-28T05:45:34.567Z,16.00
2022-09-28T05:48:06.521Z,15.92
2022-09-28T05:50:34.812Z,15.90
2022-09-28T05:53:06.979Z,15.98
2022-09-28T05:55:42.539Z,15.96
2022-09-28T05:58:10.815Z,15.86
2022-09-28T06:00:38.767Z,15.99
2022-09-28T06:03:12.576Z,16.04
2022-09-28T06:05:43.638Z,16.02
2022-09-28T06:08:13.759Z,15.98
2022-09-28T06:10:48.241Z,16.08
2022-09-28T06:13:16.534Z,16.06
2022-09-28T06:15:48.747Z,16.16
2022-09-28T06:18:19.583Z,16.22
2022-09-28T06:21:16.282Z,16.12
2022-09-28T06:23:49.403Z,16.18
2022-09-28T06:26:20.253Z,16.20
2022-09-28T06:28:52.324Z,16.29
2022-09-28T06:31:24.142Z,16.27
2022-09-28T06:33:53.883Z,16.33
2022-09-28T06:36:24.506Z,16.41
2022-09-28T06:38:54.881Z,16.41
2022-09-28T06:41:25.859Z,16.16
2022-09-28T06:43:57.685Z,16.36
2022-09-28T06:46:44.793Z,16.42
2022-09-28T06:49:19.200Z,16.52
2022-09-28T06:52:07.571Z,16.48
2022-09-28T06:54:59.440Z,16.57
2022-09-28T06:57:40.477Z,16.65
2022-09-28T07:00:13.778Z,16.72
2022-09-28T07:02:44.891Z,16.87
2022-09-28T07:05:42.052Z,16.83
2022-09-28T07:08:31.574Z,16.90
2022-09-28T07:11:20.944Z,16.88
2022-09-28T07:14:17.106Z,17.02
2022-09-28T07:17:10.925Z,17.06
2022-09-28T07:19:41.600Z,17.16
2022-09-28T07:22:18.164Z,17.19
2022-09-28T07:24:49.271Z,17.10
2022-09-28T07:27:41.431Z,17.04
2022-09-28T07:30:35.305Z,17.06
2022-09-28T07:33:44.495Z,16.94
2022-09-28T07:37:02.843Z,16.99
2022-09-28T07:39:34.003Z,17.02
2022-09-28T07:42:05.699Z,16.94
2022-09-28T07:44:35.558Z,17.07
2022-09-28T07:47:04.057Z,17.07
2022-09-28T07:49:59.897Z,17.01
2022-09-28T07:52:47.378Z,17.04
2022-09-28T07:55:26.195Z,17.10
2022-09-28T07:58:18.722Z,17.10
2022-09-28T08:00:56.115Z,17.06
2022-09-28T08:03:25.979Z,17.11
2022-09-28T08:06:09.789Z,17.11
2022-09-28T08:08:44.191Z,17.23
2022-09-28T08:11:19.644Z,17.16
2022-09-28T08:14:19.846Z,17.28
2022-09-28T08:17:08.205Z,17.27
2022-09-28T08:20:01.270Z,17.41
2022-09-28T08:22:32.391Z,17.37
2022-09-28T08:25:03.845Z,17.49
2022-09-28T08:27:32.485Z,17.46
2022-09-28T08:30:00.717Z,17.49
2022-09-28T08:32:49.745Z,17.52
2022-09-28T08:35:46.128Z,17.49
2022-09-28T08:38:23.262Z,17.48
2022-09-28T08:41:30.532Z,17.61
2022-09-28T08:44:27.157Z,17.54
2022-09-28T08:48:15.355Z,17.78
2022-09-28T08:51:21.377Z,17.79
2022-09-28T08:54:59.770Z,17.98
2022-09-28T08:58:15.252Z,17.93
2022-09-28T09:00:52.097Z,17.92
2022-09-28T09:03:45.042Z,17.90
2022-09-28T09:06:52.794Z,17.91
2022-09-28T09:09:56.505Z,17.79
2022-09-28T09:12:43.755Z,17.70
2022-09-28T09:15:39.163Z,17.61
2022-09-28T09:18:43.423Z,17.59
2022-09-28T09:21:48.415Z,17.53
2022-09-28T09:24:28.040Z,17.54
2022-09-28T09:27:29.734Z,17.51
2022-09-28T09:30:19.154Z,17.66
2022-09-28T09:33:29.051Z,17.92
2022-09-28T09:37:20.894Z,18.05
2022-09-28T09:41:07.908Z,18.11
2022-09-28T09:44:50.342Z,18.13
2022-09-28T09:47:59.976Z,18.12
2022-09-28T09:50:40.505Z,18.19
2022-09-28T09:54:07.489Z,18.20
2022-09-28T09:56:40.337Z,18.20
2022-09-28T09:59:34.699Z,18.17
2022-09-28T10:02:28.392Z,18.09
2022-09-28T10:05:31.327Z,18.09
2022-09-28T10:08:16.873Z,18.11
2022-09-28T10:11:09.169Z,18.18
2022-09-28T10:13:45.753Z,18.15
2022-09-28T10:16:35.243Z,18.22
2022-09-28T10:19:08.218Z,18.39
2022-09-28T10:21:59.618Z,18.42
2022-09-28T10:24:49.198Z,18.69
2022-09-28T10:27:32.717Z,18.75
2022-09-28T10:30:03.720Z,18.92
2022-09-28T10:32:48.020Z,18.91
2022-09-28T10:35:19.603Z,19.04
2022-09-28T10:38:37.629Z,19.05
2022-09-28T10:41:15.609Z,19.04
2022-09-28T10:44:11.256Z,18.97
2022-09-28T10:47:13.919Z,18.95
2022-09-28T10:49:47.350Z,19.07
2022-09-28T10:52:46.274Z,19.05
2022-09-28T10:55:37.233Z,19.15
2022-09-28T10:58:32.075Z,19.28
2022-09-28T11:01:20.350Z,19.33
2022-09-28T11:04:07.586Z,19.43
2022-09-28T11:06:41.857Z,19.46
2022-09-28T11:09:41.639Z,19.45
2022-09-28T11:12:22.080Z,19.58
2022-09-28T11:15:02.130Z,19.61
2022-09-28T11:17:40.122Z,19.65
2022-09-28T11:20:33.020Z,19.73
2022-09-28T11:23:26.429Z,19.73
2022-09-28T11:26:07.553Z,19.74
2022-09-28T11:28:39.443Z,19.78
2022-09-28T11:31:15.734Z,19.66
2022-09-28T11:34:36.204Z,19.68
2022-09-28T11:37:50.490Z,19.63
2022-09-28T11:41:04.906Z,19.65
2022-09-28T11:44:08.794Z,19.59
2022-09-28T11:47:29.002Z,19.63
2022-09-28T11:50:36.247Z,19.64
2022-09-28T11:53:18.401Z,19.69
2022-09-28T11:56:39.699Z,19.71
2022-09-28T11:59:51.597Z,19.81
2022-09-28T12:02:59.039Z,19.89
2022-09-28T12:06:43.846Z,20.06
2022-09-28T12:09:58.495Z,20.09
2022-09-28T12:12:38.547Z,20.27
2022-09-28T12:16:17.447Z,20.26
2022-09-28T12:18:55.444Z,20.32
2022-09-28T12:21:53.496Z,20.38
2022-09-28T12:24:44.689Z,20.41
2022-09-28T12:27:43.304Z,20.44
2022-09-28T12:30:25.730Z,20.47
2022-09-28T12:33:13.547Z,20.49
2022-09-28T12:35:51.137Z,20.54
2022-09-28T12:39:08.417Z,20.56
2022-09-28T12:42:18.131Z,20.50
2022-09-28T12:45:09.459Z,20.53
2022-09-28T12:48:12.195Z,20.61
2022-09-28T12:51:41.293Z,20.66
2022-09-28T12:55:06.250Z,20.65
2022-09-28T12:58:22.954Z,20.64
2022-09-28T13:01:22.311Z,20.67
2022-09-28T13:04:12.788Z,20.65
2022-09-28T13:07:25.380Z,20.57
2022-09-28T13:10:05.754Z,20.38
2022-09-28T13:13:13.551Z,20.57
2022-09-28T13:16:01.909Z,20.66
2022-09-28T13:18:44.430Z,20.74
2022-09-28T13:21:31.143Z,20.74
2022-09-28T13:24:27.771Z,20.77
2022-09-28T13:27:00.612Z,20.67
2022-09-28T13:29:30.868Z,20.59
2022-09-28T13:32:21.076Z,20.59
2022-09-28T13:35:21.837Z,20.49
2022-09-28T13:38:33.347Z,20.45
2022-09-28T13:41:13.036Z,20.01
2022-09-28T13:43:51.021Z,20.19
2022-09-28T13:46:44.188Z,20.28
2022-09-28T13:49:42.953Z,20.32
2022-09-28T13:52:56.196Z,20.25
2022-09-28T13:55:57.334Z,20.28
2022-09-28T13:58:43.832Z,20.15
2022-09-28T14:01:32.628Z,20.14
2022-09-28T14:04:23.595Z,20.06
2022-09-28T14:07:35.316Z,19.98
2022-09-28T14:10:44.111Z,19.97
2022-09-28T14:13:33.999Z,20.00
2022-09-28T14:16:36.715Z,20.05
2022-09-28T14:19:36.179Z,20.13
2022-09-28T14:22:31.206Z,20.21
2022-09-28T14:25:27.747Z,20.17
2022-09-28T14:28:38.529Z,20.26
2022-09-28T14:31:27.634Z,20.27
2022-09-28T14:34:01.691Z,20.32
2022-09-28T14:37:01.590Z,20.29
2022-09-28T14:39:53.928Z,20.33
2022-09-28T14:42:25.762Z,20.27
2022-09-28T14:45:06.587Z,20.32
2022-09-28T14:47:43.112Z,20.29
2022-09-28T14:50:29.137Z,20.32
2022-09-28T14:53:13.689Z,20.35
2022-09-28T14:55:50.304Z,20.39
2022-09-28T14:58:30.196Z,20.31
2022-09-28T15:01:13.915Z,20.34
2022-09-28T15:03:47.733Z,20.32
2022-09-28T15:06:20.469Z,20.31
2022-09-28T15:08:52.677Z,20.31
2022-09-28T15:11:27.837Z,20.25
2022-09-28T15:14:08.395Z,20.27
2022-09-28T15:16:37.041Z,20.23
2022-09-28T15:19:42.901Z,20.27
2022-09-28T15:22:20.441Z,20.24
2022-09-28T15:25:02.449Z,20.30
2022-09-28T15:27:39.095Z,20.29
2022-09-28T15:30:32.287Z,20.33
2022-09-28T15:33:24.419Z,20.09
2022-09-28T15:36:05.994Z,20.16
2022-09-28T15:38:35.728Z,20.04
2022-09-28T15:41:07.490Z,20.14
2022-09-28T15:43:38.396Z,20.28
2022-09-28T15:46:19.401Z,20.24
2022-09-28T15:48:57.685Z,20.33
2022-09-28T15:51:28.462Z,20.21
2022-09-28T15:54:04.553Z,20.26
2022-09-28T15:56:50.242Z,20.20
2022-09-28T15:59:39.367Z,20.18
2022-09-28T16:02:22.672Z,20.13
2022-09-28T16:05:00.925Z,20.09
2022-09-28T16:07:41.695Z,20.08
2022-09-28T16:10:12.759Z,20.07
2022-09-28T16:12:58.875Z,20.00
2022-09-28T16:15:34.562Z,19.98
2022-09-28T16:18:18.225Z,20.00
2022-09-28T16:20:53.747Z,19.82
2022-09-28T16:23:35.184Z,19.90
2022-09-28T16:26:14.993Z,19.75
2022-09-28T16:28:46.370Z,19.80
2022-09-28T16:31:14.845Z,19.71
2022-09-28T16:33:56.780Z,19.68
2022-09-28T16:36:30.107Z,19.55
2022-09-28T16:39:02.085Z,19.51
2022-09-28T16:41:42.510Z,19.29
2022-09-28T16:44:28.874Z,19.30
2022-09-28T16:46:58.836Z,19.21
2022-09-28T16:49:30.825Z,19.03
2022-09-28T16:52:00.135Z,19.04
2022-09-28T16:54:48.830Z,18.98
2022-09-28T16:57:19.680Z,18.89
2022-09-28T16:59:50.061Z,18.82
2022-09-28T17:05:18.183Z,18.67
2022-09-28T17:08:12.449Z,18.60
2022-09-28T17:11:24.062Z,18.54
2022-09-28T17:13:59.487Z,18.44
2022-09-28T17:17:02.285Z,18.43
2022-09-28T17:19:29.013Z,18.35
2022-09-28T17:21:58.115Z,18.26
2022-09-28T17:24:26.655Z,18.18
2022-09-28T17:26:57.246Z,18.11
2022-09-28T17:29:25.850Z,18.12
2022-09-28T17:31:55.147Z,18.12
2022-09-28T17:34:24.669Z,18.05
2022-09-28T17:36:54.592Z,18.04
2022-09-28T17:39:25.435Z,18.00
2022-09-28T17:41:55.280Z,17.98
2022-09-28T17:44:24.515Z,18.00
2022-09-28T17:46:54.188Z,18.13
2022-09-28T17:49:23.715Z,18.16
2022-09-28T17:51:53.162Z,18.05
2022-09-28T17:54:23.476Z,18.17
2022-09-28T17:56:51.770Z,18.20
2022-09-28T17:59:20.992Z,18.17
2022-09-28T18:01:50.180Z,18.16
2022-09-28T18:04:47.098Z,18.22
2022-09-28T18:07:08.597Z,18.24
2022-09-28T18:09:37.518Z,18.29
2022-09-28T18:12:07.902Z,18.26
2022-09-28T18:14:36.827Z,18.31
2022-09-28T18:17:06.087Z,18.21
2022-09-28T18:19:38.067Z,18.27
2022-09-28T18:22:07.657Z,18.10
2022-09-28T18:24:37.735Z,18.23
2022-09-28T18:27:05.982Z,18.24
2022-09-28T18:29:34.161Z,18.13
2022-09-28T18:32:03.768Z,18.12
2022-09-28T18:34:39.340Z,18.19
2022-09-28T18:37:08.633Z,18.15
2022-09-28T18:39:37.582Z,18.16
2022-09-28T18:42:10.973Z,18.13
2022-09-28T18:44:39.995Z,18.06
2022-09-28T18:47:09.470Z,17.96
2022-09-28T18:49:38.410Z,17.96
2022-09-28T18:52:07.604Z,17.97
2022-09-28T18:54:37.357Z,17.91
2022-09-28T18:57:08.897Z,17.85
2022-09-28T18:59:37.030Z,17.63
2022-09-28T19:02:17.239Z,17.61
2022-09-28T19:04:50.011Z,17.57
2022-09-28T19:07:28.350Z,17.46
2022-09-28T19:09:56.874Z,17.56
2022-09-28T19:12:26.521Z,17.53
2022-09-28T19:14:56.133Z,17.45
2022-09-28T19:17:26.187Z,17.31
2022-09-28T19:19:58.281Z,17.19
2022-09-28T19:22:27.547Z,17.26
2022-09-28T19:24:58.022Z,17.09
2022-09-28T19:27:26.551Z,17.00
2022-09-28T19:29:57.405Z,16.99
2022-09-28T19:32:26.077Z,17.06
2022-09-28T19:34:55.514Z,16.99
2022-09-28T19:37:23.925Z,16.93
2022-09-28T19:39:52.219Z,16.94
2022-09-28T19:42:20.850Z,16.83
2022-09-28T19:44:51.470Z,16.95
2022-09-28T19:47:24.213Z,16.96
2022-09-28T19:49:53.927Z,16.88
2022-09-28T19:52:24.341Z,16.95
2022-09-28T19:55:00.350Z,16.98
2022-09-28T19:57:32.929Z,16.97
2022-09-28T20:00:06.397Z,16.94
2022-09-28T20:02:46.610Z,16.95
2022-09-28T20:05:15.726Z,16.95
2022-09-28T20:07:44.677Z,16.95
2022-09-28T20:10:17.504Z,17.03
2022-09-28T20:12:49.254Z,17.02
2022-09-28T20:15:25.534Z,17.06
2022-09-28T20:17:59.889Z,16.99
2022-09-28T20:20:33.316Z,16.98
2022-09-28T20:23:03.053Z,17.00
2022-09-28T20:25:35.633Z,16.93
2022-09-28T20:28:05.775Z,16.95
2022-09-28T20:30:35.405Z,17.01
2022-09-28T20:33:07.730Z,17.01
2022-09-28T20:35:36.713Z,16.99
2022-09-28T20:38:09.281Z,17.00
2022-09-28T20:40:40.412Z,16.97
2022-09-28T20:43:09.967Z,16.99
2022-09-28T20:45:40.421Z,16.89
2022-09-28T20:48:09.753Z,17.00
2022-09-28T20:50:38.436Z,16.99
2022-09-28T20:53:07.836Z,16.96
2022-09-28T20:55:38.163Z,17.00
2022-09-28T20:58:11.673Z,16.99
2022-09-28T22:11:06.882Z,15.83
2022-09-28T22:13:39.650Z,15.82
2022-09-28T22:16:11.377Z,15.80
2022-09-28T22:18:41.567Z,15.71
2022-09-28T22:21:19.842Z,15.89
2022-09-28T22:23:53.983Z,15.77
2022-09-28T22:26:27.430Z,15.84
2022-09-28T22:28:58.768Z,15.80
2022-09-28T22:31:33.957Z,15.79
2022-09-28T22:34:03.191Z,15.78
2022-09-28T22:36:31.663Z,15.73
2022-09-28T22:39:00.623Z,15.68
2022-09-28T22:41:30.225Z,15.68
2022-09-28T22:43:59.322Z,15.66
2022-09-28T22:46:32.138Z,15.61
2022-09-28T22:49:01.930Z,15.59
2022-09-28T22:51:32.071Z,15.60
2022-09-28T22:54:03.593Z,15.57
2022-09-28T22:56:35.991Z,15.49
2022-09-28T22:59:05.456Z,15.51
2022-09-28T23:01:40.350Z,15.44
2022-09-28T23:04:10.105Z,15.48
2022-09-28T23:06:38.880Z,15.45
2022-09-28T23:09:07.809Z,15.37
2022-09-28T23:11:39.363Z,15.27
2022-09-28T23:14:12.596Z,15.36
2022-09-28T23:16:41.311Z,15.35
2022-09-28T23:19:09.619Z,15.33
2022-09-28T23:21:38.502Z,15.32
2022-09-28T23:24:06.543Z,15.36
2022-09-28T23:26:37.016Z,15.33
2022-09-28T23:29:06.187Z,15.24
2022-09-28T23:31:34.551Z,15.21
2022-09-28T23:34:05.566Z,15.23
2022-09-28T23:36:34.115Z,15.14
2022-09-28T23:39:03.250Z,15.17
2022-09-28T23:41:31.348Z,15.09
2022-09-28T23:43:59.739Z,15.04
2022-09-28T23:46:27.878Z,15.02
2022-09-28T23:48:56.015Z,15.03
2022-09-28T23:51:24.294Z,15.03
2022-09-28T23:53:54.384Z,15.05
2022-09-28T23:56:22.698Z,15.02
2022-09-28T23:58:51.022Z,14.95
